Phoenix, Arizona
Current Conditions -  °F | °C
As of 4:51 PM on Sunday 23 Nov 2014 (Local Time) from KPHX Reporting Station
Scattered Clouds Scattered Clouds  
Wind Chill: 72°   Ceiling: Unl
Heat Index: 72°   Visibility: 10mi
Dew Point:   Wind: 12mph
Humidity: 7%   Direction: 330°NNW
Pressure: 30"   Gusts: NA
Location:  33.45°N, 112.08°W
Report Text: KPHX 232351Z 33010KT 10SM SCT250 22/M16 A3000 RMK AO2 SLP151 60000 T02221161 10233 20167 53002
Loading
Personal Weather Stations






























Interactive Weather Map New forecast layout! Learn more

10-Day Weather Forecast

Advertisements
Track Severe Weather on mobile